Time;durP1;ratioP1;P1;durP2;ratioP2;P2;SDS_P1;SDS_P2;PMS_P1;PMS_P2;Temp;Humidity;BMP_temperature;BMP_pressure;BME280_temperature;BME280_humidity;BME280_pressure;Samples;Min_cycle;Max_cycle;Signal;HPM_P1;HPM_P2
2022/10/11 00:02:00;;;;;;;1.05;0.45;;;18.30;54.40;20.40;94360.00;;;;10512510;28;45174;-61
2022/10/11 00:07:21;;;;;;;1.80;0.32;;;18.30;54.40;20.40;94370.00;;;;10548192;27;45139;-60
2022/10/11 00:12:43;;;;;;;0.93;0.40;;;18.30;54.40;20.40;94367.00;;;;10557738;27;45254;-61
2022/10/11 00:18:04;;;;;;;0.90;0.47;;;18.30;54.40;20.40;94374.00;;;;10515308;28;45193;-61
2022/10/11 00:23:24;;;;;;;0.82;0.30;;;18.30;54.40;20.40;94380.00;;;;10515760;28;45345;-61
2022/10/11 00:28:46;;;;;;;0.93;0.45;;;18.30;54.40;20.40;94354.00;;;;10505896;28;45106;-61
2022/10/11 00:34:09;;;;;;;1.25;0.35;;;18.30;54.40;20.40;94375.00;;;;10514685;28;45012;-61
2022/10/11 00:39:29;;;;;;;2.15;0.38;;;18.30;54.40;20.40;94376.00;;;;10513820;28;45350;-61
2022/10/11 00:44:51;;;;;;;3.13;0.40;;;18.30;54.40;20.40;94364.00;;;;10539343;27;45140;-61
2022/10/11 00:50:12;;;;;;;1.27;0.30;;;18.30;54.40;20.40;94367.00;;;;10556354;27;45702;-61
2022/10/11 00:55:40;;;;;;;0.93;0.40;;;18.30;54.40;20.40;94352.00;;;;10556823;27;45187;-60
2022/10/11 01:01:02;;;;;;;1.02;0.40;;;18.30;54.40;20.40;94366.00;;;;10552546;27;45825;-61
2022/10/11 01:06:23;;;;;;;1.42;0.40;;;18.30;54.40;20.40;94360.00;;;;10513729;27;44879;-61
2022/10/11 01:11:44;;;;;;;1.05;0.22;;;18.30;54.40;20.40;94352.00;;;;10513153;28;45260;-61
2022/10/11 01:17:22;;;;;;;1.02;0.40;;;18.30;54.40;20.40;94354.00;;;;10536776;27;45191;-61
2022/10/11 01:23:17;;;;;;;1.08;0.38;;;18.30;54.40;20.40;94375.00;;;;10526904;27;45452;-61
2022/10/11 01:28:48;;;;;;;1.83;0.50;;;18.30;54.30;20.40;94370.00;;;;10505594;28;45780;-61
2022/10/11 01:34:18;;;;;;;0.50;0.38;;;18.20;54.30;20.40;94364.00;;;;10531974;27;45348;-61
2022/10/11 01:39:45;;;;;;;1.50;0.50;;;18.20;54.30;20.40;94372.00;;;;10493776;27;45303;-61
2022/10/11 01:45:11;;;;;;;0.33;0.27;;;18.20;54.30;20.40;94369.00;;;;10541007;27;45785;-61
2022/10/11 01:50:41;;;;;;;1.88;0.40;;;18.20;54.30;20.40;94366.00;;;;10554673;27;45200;-61
2022/10/11 01:56:21;;;;;;;1.10;0.43;;;18.20;54.20;20.40;94374.00;;;;10554202;27;45219;-61
2022/10/11 02:01:54;;;;;;;0.95;0.30;;;18.20;54.20;20.40;94375.00;;;;10553007;27;45220;-61
2022/10/11 02:07:23;;;;;;;2.28;0.60;;;18.20;54.20;20.40;94368.00;;;;10512722;28;45730;-61
2022/10/11 02:12:49;;;;;;;2.22;0.50;;;18.20;54.20;20.40;94357.00;;;;10509834;28;45251;-61
2022/10/11 02:18:14;;;;;;;3.15;0.43;;;18.20;54.20;20.40;94355.00;;;;10507594;28;45247;-61
2022/10/11 02:23:43;;;;;;;0.82;0.40;;;18.20;54.20;20.40;94363.00;;;;10510440;28;45820;-61
2022/10/11 02:29:07;;;;;;;1.42;0.57;;;18.20;54.20;20.30;94361.00;;;;10512191;27;45190;-60
2022/10/11 02:34:33;;;;;;;1.65;0.60;;;18.20;54.20;20.30;94348.00;;;;10503181;28;45125;-61
2022/10/11 02:40:02;;;;;;;1.30;0.30;;;18.20;54.20;20.30;94373.00;;;;10506895;28;45796;-61
2022/10/11 02:45:29;;;;;;;0.95;0.30;;;18.20;54.20;20.30;94364.00;;;;10534978;27;45203;-61
2022/10/11 02:50:50;;;;;;;0.77;0.30;;;18.20;54.20;20.30;94362.00;;;;10555701;27;45365;-61
2022/10/11 02:56:12;;;;;;;0.85;0.40;;;18.20;54.20;20.30;94372.00;;;;10553317;27;45325;-61
2022/10/11 03:01:32;;;;;;;0.70;0.30;;;18.20;54.20;20.30;94361.00;;;;10558007;27;45157;-61
2022/10/11 03:06:53;;;;;;;1.00;0.30;;;18.20;54.20;20.30;94357.00;;;;10506588;28;45856;-61
2022/10/11 03:12:14;;;;;;;0.60;0.30;;;18.20;54.20;20.30;94369.00;;;;10514027;28;45714;-61
2022/10/11 03:17:35;;;;;;;0.90;0.38;;;18.20;54.20;20.30;94363.00;;;;10516927;28;45743;-61
2022/10/11 03:22:56;;;;;;;1.27;0.50;;;18.20;54.20;20.30;94360.00;;;;10521319;27;45226;-61
2022/10/11 03:28:18;;;;;;;1.30;0.28;;;18.20;54.20;20.30;94356.00;;;;10544693;27;45468;-61
2022/10/11 03:33:38;;;;;;;0.75;0.35;;;18.20;54.20;20.30;94355.00;;;;10556764;27;45228;-61
2022/10/11 03:39:01;;;;;;;1.38;0.40;;;18.20;54.20;20.30;94363.00;;;;10503972;27;45451;-60
2022/10/11 03:44:23;;;;;;;1.45;0.43;;;18.20;54.20;20.30;94363.00;;;;10525277;27;45682;-61
2022/10/11 03:49:44;;;;;;;0.40;0.30;;;18.20;54.20;20.30;94345.00;;;;10516098;28;45264;-60
2022/10/11 03:55:06;;;;;;;1.20;0.40;;;18.20;54.10;20.30;94358.00;;;;10516332;28;45293;-60
2022/10/11 04:00:28;;;;;;;1.40;0.47;;;18.20;54.20;20.30;94361.00;;;;10516368;28;45527;-61
2022/10/11 04:05:49;;;;;;;0.65;0.30;;;18.20;54.20;20.30;94360.00;;;;10529008;27;45188;-62
2022/10/11 04:11:09;;;;;;;1.17;0.40;;;18.20;54.20;20.30;94360.00;;;;10556653;27;45219;-60
2022/10/11 04:16:31;;;;;;;0.85;0.40;;;18.20;54.20;20.30;94355.00;;;;10533100;27;45185;-61
2022/10/11 04:21:52;;;;;;;1.17;0.50;;;18.20;54.20;20.30;94355.00;;;;10557007;27;45884;-61
2022/10/11 04:27:12;;;;;;;0.75;0.40;;;18.20;54.30;20.30;94352.00;;;;10517188;27;45431;-60
2022/10/11 04:32:34;;;;;;;1.15;0.50;;;18.20;54.30;20.30;94364.00;;;;10547660;27;45717;-61
2022/10/11 04:37:55;;;;;;;2.63;0.40;;;18.20;54.30;20.30;94368.00;;;;10507703;27;45231;-61
2022/10/11 04:43:17;;;;;;;2.55;0.60;;;18.20;54.40;20.30;94369.00;;;;10514734;28;45258;-61
2022/10/11 04:48:39;;;;;;;1.48;0.50;;;18.20;54.40;20.30;94367.00;;;;10519038;27;45295;-60
2022/10/11 04:53:59;;;;;;;2.38;0.50;;;18.20;54.40;20.30;94361.00;;;;10557619;27;45157;-61
2022/10/11 04:59:20;;;;;;;1.98;0.50;;;18.20;54.40;20.30;94374.00;;;;10556725;27;45247;-61
2022/10/11 05:04:42;;;;;;;0.43;0.30;;;18.20;54.30;20.30;94378.00;;;;10505002;27;45204;-60
2022/10/11 05:10:03;;;;;;;1.15;0.43;;;18.20;54.40;20.30;94374.00;;;;10523350;27;45239;-60
2022/10/11 05:15:24;;;;;;;1.63;0.65;;;18.20;54.40;20.30;94377.00;;;;10523704;27;45131;-61
2022/10/11 05:20:46;;;;;;;0.95;0.65;;;18.20;54.40;20.30;94386.00;;;;10556288;27;45131;-60
2022/10/11 05:26:06;;;;;;;0.82;0.40;;;18.20;54.40;20.30;94384.00;;;;10521408;27;46046;-60
2022/10/11 05:31:27;;;;;;;1.58;0.60;;;18.20;54.40;20.40;94397.00;;;;10515580;27;45174;-61
2022/10/11 05:36:49;;;;;;;1.55;0.65;;;18.20;54.50;20.30;94399.00;;;;10496765;27;45107;-60
2022/10/11 05:42:09;;;;;;;0.80;0.40;;;18.20;54.50;20.40;94391.00;;;;10502359;27;45365;-61
2022/10/11 05:47:31;;;;;;;1.42;0.50;;;18.20;54.50;20.30;94401.00;;;;10555102;27;45161;-61
2022/10/11 05:52:53;;;;;;;1.27;0.52;;;18.20;54.50;20.40;94404.00;;;;10554699;27;45159;-61
2022/10/11 05:58:17;;;;;;;2.38;0.50;;;18.20;54.50;20.40;94405.00;;;;10554675;27;45806;-60
2022/10/11 06:03:37;;;;;;;2.08;0.70;;;18.20;54.60;20.40;94403.00;;;;10534598;27;45855;-61
2022/10/11 06:08:59;;;;;;;2.30;0.50;;;18.20;54.60;20.40;94410.00;;;;10507142;28;45267;-61
2022/10/11 06:14:20;;;;;;;0.70;0.35;;;18.20;54.60;20.40;94407.00;;;;10525940;27;45750;-61
2022/10/11 06:19:40;;;;;;;1.38;0.50;;;18.30;54.70;20.40;94411.00;;;;10552873;27;45238;-61
2022/10/11 06:25:02;;;;;;;1.25;0.50;;;18.30;54.70;20.40;94421.00;;;;10517060;27;45169;-61
2022/10/11 06:30:23;;;;;;;2.05;0.40;;;18.30;54.70;20.40;94423.00;;;;10528923;27;45296;-61
2022/10/11 06:35:43;;;;;;;2.10;0.43;;;18.30;54.70;20.40;94417.00;;;;10547373;27;45166;-60
2022/10/11 06:41:14;;;;;;;0.82;0.40;;;18.30;54.70;20.30;94421.00;;;;10532525;27;45347;-61
2022/10/11 06:46:35;;;;;;;2.53;0.50;;;18.20;54.60;20.40;94441.00;;;;10516359;28;45147;-61
2022/10/11 06:51:55;;;;;;;2.42;0.45;;;18.30;54.60;20.40;94443.00;;;;10505182;28;45703;-61
2022/10/11 06:57:17;;;;;;;2.03;0.60;;;18.30;54.70;20.40;94445.00;;;;10531273;27;45714;-61
2022/10/11 07:02:38;;;;;;;1.60;0.40;;;18.30;54.70;20.40;94437.00;;;;10515132;28;45280;-61
2022/10/11 07:07:58;;;;;;;2.38;0.60;;;18.30;54.70;20.40;94457.00;;;;10559413;27;45275;-61
2022/10/11 07:13:20;;;;;;;1.48;0.50;;;18.30;54.70;20.40;94461.00;;;;10560359;27;46127;-61
2022/10/11 07:18:41;;;;;;;1.55;0.50;;;18.30;54.70;20.40;94458.00;;;;10549889;27;45403;-61
2022/10/11 07:24:02;;;;;;;1.73;0.60;;;18.30;54.70;20.40;94461.00;;;;10515895;28;45169;-60
2022/10/11 07:29:25;;;;;;;2.60;0.50;;;18.30;54.70;20.40;94471.00;;;;10514465;27;45130;-61
2022/10/11 07:34:45;;;;;;;2.15;0.60;;;18.30;54.80;20.40;94472.00;;;;10516710;28;45188;-61
2022/10/11 07:40:10;;;;;;;1.30;0.45;;;18.30;54.80;20.40;94474.00;;;;10515557;28;45217;-61
2022/10/11 07:45:31;;;;;;;1.83;0.55;;;18.30;54.80;20.40;94472.00;;;;10537349;27;45503;-61
2022/10/11 07:50:52;;;;;;;1.13;0.40;;;18.30;54.90;20.40;94470.00;;;;10537906;27;45166;-60
2022/10/11 07:56:15;;;;;;;1.83;0.50;;;18.30;54.90;20.40;94475.00;;;;10537294;27;45161;-60
2022/10/11 08:01:37;;;;;;;0.65;0.40;;;18.30;54.90;20.40;94478.00;;;;10526074;27;45282;-61
2022/10/11 08:06:57;;;;;;;1.77;0.30;;;18.30;54.90;20.40;94481.00;;;;10550699;27;45674;-61
2022/10/11 08:12:18;;;;;;;1.42;0.40;;;18.30;54.90;20.40;94472.00;;;;10536741;27;45115;-61
2022/10/11 08:17:40;;;;;;;1.08;0.40;;;18.30;54.90;20.40;94473.00;;;;10535426;27;45260;-61
2022/10/11 08:23:00;;;;;;;2.63;0.60;;;18.30;54.90;20.40;94494.00;;;;10544303;27;45491;-61
2022/10/11 08:28:21;;;;;;;2.88;0.52;;;18.30;55.00;20.40;94479.00;;;;10526718;27;45800;-61
2022/10/11 08:33:43;;;;;;;0.90;0.32;;;18.30;55.00;20.40;94489.00;;;;10520698;28;45284;-61
2022/10/11 08:39:05;;;;;;;3.65;0.70;;;18.30;55.00;20.40;94490.00;;;;10519455;28;45083;-61
2022/10/11 08:44:37;;;;;;;0.70;0.40;;;18.30;55.00;20.40;94482.00;;;;10528395;27;45247;-61
2022/10/11 08:50:00;;;;;;;1.02;0.50;;;18.30;55.00;20.40;94499.00;;;;10548387;27;45694;-61
2022/10/11 08:55:30;;;;;;;1.92;0.45;;;18.30;55.00;20.40;94500.00;;;;10520412;28;45135;-61
2022/10/11 09:00:54;;;;;;;2.10;0.47;;;18.30;55.00;20.40;94496.00;;;;10533036;27;45087;-61
2022/10/11 09:06:33;;;;;;;1.23;0.50;;;18.30;55.00;20.40;94494.00;;;;10533744;27;45232;-61
2022/10/11 09:12:09;;;;;;;2.88;0.60;;;18.30;55.00;20.40;94498.00;;;;10519513;28;45148;-61
2022/10/11 09:17:50;;;;;;;0.70;0.30;;;18.30;55.00;20.40;94493.00;;;;10531869;27;45188;-61
2022/10/11 09:23:35;;;;;;;0.75;0.50;;;18.30;55.00;20.40;94496.00;;;;10527047;27;45160;-61
2022/10/11 09:29:04;;;;;;;1.85;0.60;;;18.30;55.00;20.40;94488.00;;;;10543297;27;45374;-61
2022/10/11 09:34:31;;;;;;;2.97;0.73;;;18.30;55.00;20.40;94505.00;;;;10517366;28;45221;-61
2022/10/11 09:39:56;;;;;;;;;;;18.30;55.10;20.40;94513.00;;;;10531407;27;45764;-61
2022/10/11 09:45:20;;;;;;;1.40;0.40;;;18.30;55.10;20.40;94493.00;;;;10491626;28;45233;-61
2022/10/11 09:50:40;;;;;;;2.58;0.50;;;18.30;55.10;20.40;94505.00;;;;10517509;28;45220;-61
2022/10/11 09:56:05;;;;;;;1.33;0.30;;;18.30;55.10;20.50;94510.00;;;;10553724;27;45227;-61
2022/10/11 10:01:28;;;;;;;1.67;0.60;;;18.30;55.20;20.40;94501.00;;;;10532707;27;45115;-61
2022/10/11 10:06:48;;;;;;;1.40;0.60;;;18.30;55.10;20.50;94507.00;;;;10528160;27;45365;-60
2022/10/11 10:12:17;;;;;;;0.95;0.40;;;18.30;55.20;20.50;94505.00;;;;10558195;27;45232;-60
2022/10/11 10:17:38;;;;;;;3.42;0.60;;;18.40;55.20;20.50;94505.00;;;;10561840;27;45166;-60
2022/10/11 10:23:01;;;;;;;2.25;0.30;;;18.40;55.20;20.50;94497.00;;;;10561253;27;45501;-60
2022/10/11 10:28:26;;;;;;;1.50;0.60;;;18.40;55.20;20.50;94496.00;;;;10524286;27;45185;-61
2022/10/11 10:33:50;;;;;;;1.00;0.43;;;18.40;55.30;20.50;94494.00;;;;10526119;27;45248;-59
2022/10/11 10:39:21;;;;;;;1.42;0.43;;;18.40;55.30;20.50;94480.00;;;;10503562;28;45227;-59
2022/10/11 10:44:44;;;;;;;1.92;0.50;;;18.40;55.30;20.50;94500.00;;;;10542061;27;45769;-61
2022/10/11 10:50:12;;;;;;;0.93;0.52;;;18.40;55.20;20.50;94479.00;;;;10559995;27;45798;-60
2022/10/11 10:55:38;;;;;;;0.88;0.50;;;18.40;55.30;20.50;94486.00;;;;10539547;27;45822;-61
2022/10/11 11:01:10;;;;;;;1.55;0.45;;;18.40;55.30;20.60;94480.00;;;;10516446;28;45757;-61
2022/10/11 11:06:39;;;;;;;1.77;0.50;;;18.50;55.30;20.60;94469.00;;;;10517651;27;45880;-60
2022/10/11 11:12:16;;;;;;;0.60;0.50;;;18.50;55.20;20.60;94482.00;;;;10513106;27;45197;-60
2022/10/11 11:18:00;;;;;;;1.55;0.60;;;18.50;55.20;20.60;94478.00;;;;10518883;27;45201;-60
2022/10/11 11:23:25;;;;;;;0.68;0.28;;;18.50;55.20;20.60;94458.00;;;;10531811;27;45798;-59
2022/10/11 11:29:07;;;;;;;1.15;0.45;;;18.50;55.20;20.60;94462.00;;;;10543606;27;45859;-60
2022/10/11 11:34:35;;;;;;;1.38;0.40;;;18.50;55.20;20.60;94465.00;;;;10550822;27;45183;-60
2022/10/11 11:40:02;;;;;;;2.42;0.50;;;18.50;55.20;20.60;94439.00;;;;10524859;27;45791;-60
2022/10/11 11:45:28;;;;;;;2.08;0.47;;;18.50;55.20;20.60;94458.00;;;;10523890;27;45207;-60
2022/10/11 11:50:58;;;;;;;0.93;0.60;;;18.50;55.20;20.60;94458.00;;;;10515954;28;45923;-59
2022/10/11 11:56:27;;;;;;;1.20;0.50;;;18.50;55.20;20.70;94454.00;;;;10515806;28;45269;-60
2022/10/11 12:01:59;;;;;;;0.70;0.40;;;18.50;55.20;20.70;94444.00;;;;10513445;28;45124;-60
2022/10/11 12:07:25;;;;;;;1.00;0.40;;;18.60;55.20;20.70;94440.00;;;;10539297;27;45706;-59
2022/10/11 12:12:46;;;;;;;0.40;0.30;;;18.60;55.20;20.70;94440.00;;;;10528904;27;45805;-59
2022/10/11 12:18:15;;;;;;;0.88;0.50;;;18.60;55.20;20.70;94435.00;;;;10557261;27;45273;-62
2022/10/11 12:23:44;;;;;;;1.35;0.50;;;18.60;55.10;20.70;94433.00;;;;10557068;27;45751;-60
2022/10/11 12:29:41;;;;;;;1.15;0.50;;;18.60;55.10;20.70;94423.00;;;;10540521;27;45250;-59
2022/10/11 12:35:59;;;;;;;1.50;0.40;;;18.60;55.10;20.70;94424.00;;;;10510720;27;45157;-61
2022/10/11 12:41:52;;;;;;;0.98;0.30;;;18.60;55.10;20.70;94421.00;;;;10497950;28;45711;-60
2022/10/11 12:47:35;;;;;;;0.65;0.40;;;18.60;55.10;20.70;94406.00;;;;10503125;28;45710;-60
2022/10/11 12:53:05;;;;;;;2.38;0.40;;;18.60;55.10;20.70;94410.00;;;;10513324;28;45155;-59
2022/10/11 12:58:37;;;;;;;1.77;0.40;;;18.60;55.10;20.70;94407.00;;;;10513347;28;45172;-59
2022/10/11 13:04:03;;;;;;;0.90;0.57;;;18.60;55.00;20.80;94416.00;;;;10512487;28;45808;-60
2022/10/11 13:09:30;;;;;;;0.88;0.45;;;18.60;55.00;20.80;94403.00;;;;10508094;27;45680;-60
2022/10/11 13:15:02;;;;;;;1.25;0.40;;;18.70;55.00;20.80;94399.00;;;;10520165;27;45140;-60
2022/10/11 13:20:27;;;;;;;0.73;0.40;;;18.60;55.00;20.80;94400.00;;;;10554593;27;45219;-60
2022/10/11 13:25:49;;;;;;;1.80;0.50;;;18.60;54.90;20.80;94411.00;;;;10512739;28;45272;-59
2022/10/11 13:31:11;;;;;;;0.65;0.40;;;18.70;55.00;20.80;94405.00;;;;10512411;28;45678;-61
2022/10/11 13:36:32;;;;;;;0.88;0.50;;;18.70;55.00;20.80;94404.00;;;;10510044;28;46121;-60
2022/10/11 13:41:53;;;;;;;2.55;0.40;;;18.70;55.00;20.80;94409.00;;;;10533774;27;45283;-59
2022/10/11 13:47:18;;;;;;;0.88;0.50;;;18.70;55.00;20.80;94400.00;;;;10501606;28;45121;-59
2022/10/11 13:52:54;;;;;;;1.33;0.60;;;18.70;54.90;20.80;94399.00;;;;10511806;28;45223;-60
2022/10/11 13:58:18;;;;;;;3.40;0.65;;;18.60;54.90;20.80;94379.00;;;;10511444;28;45219;-60
2022/10/11 14:03:46;;;;;;;1.67;0.52;;;18.60;54.90;20.80;94376.00;;;;10511690;28;45255;-60
2022/10/11 14:09:15;;;;;;;1.08;0.50;;;18.60;54.90;20.80;94382.00;;;;10511249;28;45284;-61
2022/10/11 14:14:43;;;;;;;0.98;0.40;;;18.70;54.90;20.80;94384.00;;;;10524250;27;45762;-61
2022/10/11 14:20:15;;;;;;;1.55;0.40;;;18.70;54.90;20.80;94385.00;;;;10553497;27;45230;-60
2022/10/11 14:25:36;;;;;;;1.17;0.47;;;18.60;54.90;20.80;94397.00;;;;10553196;27;45186;-60
2022/10/11 14:30:57;;;;;;;1.98;0.40;;;18.60;54.90;20.80;94395.00;;;;10553504;27;45677;-59
2022/10/11 14:36:20;;;;;;;1.08;0.40;;;18.60;54.90;20.80;94399.00;;;;10517623;27;45298;-60
2022/10/11 14:41:41;;;;;;;1.67;0.57;;;18.60;54.90;20.80;94400.00;;;;10532140;27;45135;-60
2022/10/11 14:47:05;;;;;;;1.95;0.60;;;18.60;54.90;20.80;94394.00;;;;10503816;28;44970;-59
2022/10/11 14:52:27;;;;;;;1.88;0.55;;;18.60;54.90;20.70;94400.00;;;;10502050;28;45768;-60
2022/10/11 14:57:48;;;;;;;0.47;0.30;;;18.60;54.90;20.70;94381.00;;;;10515366;27;45776;-62
